sensor_id;sensor_type;location;lat;lon;timestamp;pressure;altitude;pressure_sealevel;temperature;humidity
48156;BME280;35568;48.104;11.782;2023-04-15T00:02:19;94310.26;;;4.94;56.83
48156;BME280;35568;48.104;11.782;2023-04-15T00:04:46;94305.91;;;4.94;56.75
48156;BME280;35568;48.104;11.782;2023-04-15T00:07:14;94301.76;;;4.74;56.67
48156;BME280;35568;48.104;11.782;2023-04-15T00:09:41;94300.34;;;4.97;56.69
48156;BME280;35568;48.104;11.782;2023-04-15T00:12:09;94297.38;;;4.91;56.83
48156;BME280;35568;48.104;11.782;2023-04-15T00:14:36;94299.76;;;5.11;56.45
48156;BME280;35568;48.104;11.782;2023-04-15T00:17:04;94297.28;;;5.23;56.02
48156;BME280;35568;48.104;11.782;2023-04-15T00:19:31;94293.26;;;5.32;55.90
48156;BME280;35568;48.104;11.782;2023-04-15T00:21:59;94292.43;;;4.87;56.19
48156;BME280;35568;48.104;11.782;2023-04-15T00:24:26;94290.26;;;5.06;56.11
48156;BME280;35568;48.104;11.782;2023-04-15T00:26:53;94289.73;;;5.28;56.07
48156;BME280;35568;48.104;11.782;2023-04-15T00:29:20;94290.55;;;5.00;56.17
48156;BME280;35568;48.104;11.782;2023-04-15T00:31:47;94289.61;;;5.07;56.42
48156;BME280;35568;48.104;11.782;2023-04-15T00:34:14;94288.49;;;5.34;56.06
48156;BME280;35568;48.104;11.782;2023-04-15T00:36:41;94288.89;;;5.44;56.14
48156;BME280;35568;48.104;11.782;2023-04-15T00:39:08;94285.76;;;5.00;56.13
48156;BME280;35568;48.104;11.782;2023-04-15T00:41:34;94287.66;;;5.56;56.06
48156;BME280;35568;48.104;11.782;2023-04-15T00:44:01;94288.96;;;5.66;55.55
48156;BME280;35568;48.104;11.782;2023-04-15T00:46:30;94288.56;;;5.45;55.43
48156;BME280;35568;48.104;11.782;2023-04-15T00:48:57;94284.89;;;5.66;55.04
48156;BME280;35568;48.104;11.782;2023-04-15T00:51:24;94286.01;;;5.49;55.20
48156;BME280;35568;48.104;11.782;2023-04-15T00:53:50;94287.06;;;5.95;54.92
48156;BME280;35568;48.104;11.782;2023-04-15T00:56:19;94290.62;;;5.66;55.04
48156;BME280;35568;48.104;11.782;2023-04-15T00:58:47;94286.84;;;5.33;55.04
48156;BME280;35568;48.104;11.782;2023-04-15T01:01:14;94284.09;;;5.60;54.95
48156;BME280;35568;48.104;11.782;2023-04-15T01:03:41;94285.04;;;5.51;55.20
48156;BME280;35568;48.104;11.782;2023-04-15T01:06:08;94284.15;;;5.03;55.42
48156;BME280;35568;48.104;11.782;2023-04-15T01:08:35;94283.03;;;4.98;56.10
48156;BME280;35568;48.104;11.782;2023-04-15T01:11:02;94280.89;;;5.29;56.28
48156;BME280;35568;48.104;11.782;2023-04-15T01:13:31;94279.95;;;5.21;56.19
48156;BME280;35568;48.104;11.782;2023-04-15T01:15:59;94285.16;;;5.20;55.67
48156;BME280;35568;48.104;11.782;2023-04-15T01:18:27;94281.66;;;5.20;56.29
48156;BME280;35568;48.104;11.782;2023-04-15T01:20:55;94283.52;;;5.21;55.94
48156;BME280;35568;48.104;11.782;2023-04-15T01:23:21;94287.41;;;5.13;55.78
48156;BME280;35568;48.104;11.782;2023-04-15T01:25:49;94285.82;;;5.58;55.70
48156;BME280;35568;48.104;11.782;2023-04-15T01:28:17;94284.57;;;5.46;55.28
48156;BME280;35568;48.104;11.782;2023-04-15T01:30:45;94284.12;;;4.98;55.99
48156;BME280;35568;48.104;11.782;2023-04-15T01:33:11;94283.09;;;5.05;55.88
48156;BME280;35568;48.104;11.782;2023-04-15T01:35:39;94281.36;;;5.43;55.69
48156;BME280;35568;48.104;11.782;2023-04-15T01:38:07;94282.42;;;4.92;56.07
48156;BME280;35568;48.104;11.782;2023-04-15T01:40:34;94285.48;;;5.27;56.16
48156;BME280;35568;48.104;11.782;2023-04-15T01:43:02;94287.58;;;5.45;55.81
48156;BME280;35568;48.104;11.782;2023-04-15T01:45:29;94291.28;;;5.20;55.76
48156;BME280;35568;48.104;11.782;2023-04-15T01:47:56;94290.02;;;5.25;55.71
48156;BME280;35568;48.104;11.782;2023-04-15T01:50:22;94287.72;;;5.11;55.92
48156;BME280;35568;48.104;11.782;2023-04-15T01:52:49;94285.22;;;4.89;55.93
48156;BME280;35568;48.104;11.782;2023-04-15T01:55:16;94284.79;;;4.98;55.98
48156;BME280;35568;48.104;11.782;2023-04-15T01:57:43;94285.63;;;4.89;56.22
48156;BME280;35568;48.104;11.782;2023-04-15T02:00:10;94285.44;;;4.94;56.26
48156;BME280;35568;48.104;11.782;2023-04-15T02:02:37;94283.69;;;5.28;56.14
48156;BME280;35568;48.104;11.782;2023-04-15T02:05:05;94281.72;;;5.14;56.14
48156;BME280;35568;48.104;11.782;2023-04-15T02:07:32;94281.41;;;5.26;55.86
48156;BME280;35568;48.104;11.782;2023-04-15T02:09:59;94279.29;;;4.97;56.23
48156;BME280;35568;48.104;11.782;2023-04-15T02:12:26;94281.53;;;4.74;56.40
48156;BME280;35568;48.104;11.782;2023-04-15T02:14:53;94278.72;;;5.01;56.41
48156;BME280;35568;48.104;11.782;2023-04-15T02:17:20;94276.02;;;4.79;56.72
48156;BME280;35568;48.104;11.782;2023-04-15T02:19:47;94271.77;;;4.73;56.80
48156;BME280;35568;48.104;11.782;2023-04-15T02:22:14;94271.34;;;4.86;56.70
48156;BME280;35568;48.104;11.782;2023-04-15T02:24:41;94275.25;;;4.84;56.66
48156;BME280;35568;48.104;11.782;2023-04-15T02:27:07;94277.50;;;4.73;56.51
48156;BME280;35568;48.104;11.782;2023-04-15T02:29:34;94276.98;;;4.98;56.37
48156;BME280;35568;48.104;11.782;2023-04-15T02:32:01;94274.45;;;4.79;56.75
48156;BME280;35568;48.104;11.782;2023-04-15T02:34:28;94276.39;;;4.99;56.45
48156;BME280;35568;48.104;11.782;2023-04-15T02:36:55;94275.98;;;4.95;56.45
48156;BME280;35568;48.104;11.782;2023-04-15T02:39:22;94275.92;;;4.69;56.92
48156;BME280;35568;48.104;11.782;2023-04-15T02:41:49;94278.53;;;4.73;56.66
48156;BME280;35568;48.104;11.782;2023-04-15T02:44:16;94270.52;;;5.05;56.39
48156;BME280;35568;48.104;11.782;2023-04-15T02:46:42;94274.07;;;4.97;56.54
48156;BME280;35568;48.104;11.782;2023-04-15T02:49:09;94274.81;;;4.57;56.74
48156;BME280;35568;48.104;11.782;2023-04-15T02:51:36;94274.83;;;5.11;56.50
48156;BME280;35568;48.104;11.782;2023-04-15T02:54:03;94277.61;;;4.87;56.28
48156;BME280;35568;48.104;11.782;2023-04-15T02:56:30;94280.86;;;5.57;55.50
48156;BME280;35568;48.104;11.782;2023-04-15T02:58:57;94283.52;;;5.41;55.86
48156;BME280;35568;48.104;11.782;2023-04-15T03:03:03;94284.41;;;5.82;55.02
48156;BME280;35568;48.104;11.782;2023-04-15T03:05:31;94284.22;;;5.95;55.12
48156;BME280;35568;48.104;11.782;2023-04-15T03:07:57;94287.82;;;5.74;54.89
48156;BME280;35568;48.104;11.782;2023-04-15T03:10:25;94289.33;;;5.56;54.92
48156;BME280;35568;48.104;11.782;2023-04-15T03:12:52;94292.99;;;5.81;54.84
48156;BME280;35568;48.104;11.782;2023-04-15T03:15:19;94292.21;;;6.09;54.43
48156;BME280;35568;48.104;11.782;2023-04-15T03:17:45;94291.83;;;5.95;54.39
48156;BME280;35568;48.104;11.782;2023-04-15T03:20:12;94293.87;;;6.03;54.17
48156;BME280;35568;48.104;11.782;2023-04-15T03:22:39;94291.88;;;5.98;53.91
48156;BME280;35568;48.104;11.782;2023-04-15T03:25:06;94292.26;;;5.71;54.48
48156;BME280;35568;48.104;11.782;2023-04-15T03:27:33;94296.37;;;6.17;54.02
48156;BME280;35568;48.104;11.782;2023-04-15T03:30:00;94298.91;;;5.90;54.08
48156;BME280;35568;48.104;11.782;2023-04-15T03:32:27;94296.31;;;5.89;54.18
48156;BME280;35568;48.104;11.782;2023-04-15T03:34:54;94297.65;;;6.02;54.04
48156;BME280;35568;48.104;11.782;2023-04-15T03:37:20;94299.49;;;6.41;53.70
48156;BME280;35568;48.104;11.782;2023-04-15T03:39:47;94303.60;;;6.18;53.84
48156;BME280;35568;48.104;11.782;2023-04-15T03:42:14;94300.94;;;6.34;53.60
48156;BME280;35568;48.104;11.782;2023-04-15T03:44:41;94301.87;;;6.54;53.38
48156;BME280;35568;48.104;11.782;2023-04-15T03:47:08;94302.28;;;6.68;52.83
48156;BME280;35568;48.104;11.782;2023-04-15T03:49:35;94299.12;;;6.59;53.03
48156;BME280;35568;48.104;11.782;2023-04-15T03:52:02;94300.43;;;6.37;53.30
48156;BME280;35568;48.104;11.782;2023-04-15T03:54:29;94298.69;;;6.20;53.38
48156;BME280;35568;48.104;11.782;2023-04-15T03:56:55;94297.35;;;6.12;53.40
48156;BME280;35568;48.104;11.782;2023-04-15T03:59:22;94298.83;;;5.78;54.08
48156;BME280;35568;48.104;11.782;2023-04-15T04:01:49;94298.83;;;5.81;54.12
48156;BME280;35568;48.104;11.782;2023-04-15T04:04:16;94300.92;;;5.72;54.24
48156;BME280;35568;48.104;11.782;2023-04-15T04:06:43;94300.73;;;5.77;54.45
48156;BME280;35568;48.104;11.782;2023-04-15T04:09:09;94301.30;;;5.70;54.41
48156;BME280;35568;48.104;11.782;2023-04-15T04:11:36;94298.98;;;5.36;54.59
48156;BME280;35568;48.104;11.782;2023-04-15T04:14:03;94299.44;;;5.39;55.00
48156;BME280;35568;48.104;11.782;2023-04-15T04:16:30;94301.35;;;5.76;54.83
48156;BME280;35568;48.104;11.782;2023-04-15T04:18:57;94300.22;;;5.38;55.04
48156;BME280;35568;48.104;11.782;2023-04-15T04:21:23;94300.82;;;5.30;55.24
48156;BME280;35568;48.104;11.782;2023-04-15T04:23:50;94301.26;;;5.11;54.97
48156;BME280;35568;48.104;11.782;2023-04-15T04:26:17;94300.43;;;5.31;55.29
48156;BME280;35568;48.104;11.782;2023-04-15T04:28:44;94301.77;;;5.28;55.17
48156;BME280;35568;48.104;11.782;2023-04-15T04:31:11;94301.69;;;5.66;54.82
48156;BME280;35568;48.104;11.782;2023-04-15T04:33:38;94303.33;;;5.76;54.34
48156;BME280;35568;48.104;11.782;2023-04-15T04:36:07;94303.43;;;5.55;54.83
48156;BME280;35568;48.104;11.782;2023-04-15T04:38:34;94305.43;;;5.65;54.58
48156;BME280;35568;48.104;11.782;2023-04-15T04:41:01;94306.97;;;5.55;54.47
48156;BME280;35568;48.104;11.782;2023-04-15T04:43:27;94305.89;;;5.31;54.74
48156;BME280;35568;48.104;11.782;2023-04-15T04:45:54;94306.86;;;5.60;54.98
48156;BME280;35568;48.104;11.782;2023-04-15T04:48:21;94302.04;;;5.18;55.04
48156;BME280;35568;48.104;11.782;2023-04-15T04:50:48;94302.77;;;5.22;54.94
48156;BME280;35568;48.104;11.782;2023-04-15T04:53:15;94303.73;;;5.17;54.96
48156;BME280;35568;48.104;11.782;2023-04-15T04:55:42;94305.66;;;5.46;54.51
48156;BME280;35568;48.104;11.782;2023-04-15T04:58:09;94302.61;;;5.69;54.02
48156;BME280;35568;48.104;11.782;2023-04-15T05:00:36;94302.47;;;5.65;53.89
48156;BME280;35568;48.104;11.782;2023-04-15T05:03:03;94305.20;;;5.50;54.26
48156;BME280;35568;48.104;11.782;2023-04-15T05:05:29;94301.51;;;5.20;54.36
48156;BME280;35568;48.104;11.782;2023-04-15T05:07:56;94301.87;;;4.94;55.09
48156;BME280;35568;48.104;11.782;2023-04-15T05:10:23;94301.22;;;5.26;55.02
48156;BME280;35568;48.104;11.782;2023-04-15T05:12:50;94300.60;;;5.16;55.26
48156;BME280;35568;48.104;11.782;2023-04-15T05:15:17;94296.58;;;5.07;54.86
48156;BME280;35568;48.104;11.782;2023-04-15T05:17:44;94297.77;;;5.27;54.65
48156;BME280;35568;48.104;11.782;2023-04-15T05:20:11;94294.79;;;5.30;55.03
48156;BME280;35568;48.104;11.782;2023-04-15T05:22:38;94296.72;;;4.90;55.01
48156;BME280;35568;48.104;11.782;2023-04-15T05:25:06;94297.20;;;5.00;55.01
48156;BME280;35568;48.104;11.782;2023-04-15T05:27:33;94301.40;;;4.91;54.87
48156;BME280;35568;48.104;11.782;2023-04-15T05:30:00;94297.13;;;5.41;54.63
48156;BME280;35568;48.104;11.782;2023-04-15T05:32:27;94300.82;;;5.20;54.85
48156;BME280;35568;48.104;11.782;2023-04-15T05:34:53;94299.18;;;5.20;55.30
48156;BME280;35568;48.104;11.782;2023-04-15T05:37:20;94298.85;;;5.00;55.05
48156;BME280;35568;48.104;11.782;2023-04-15T05:39:47;94298.81;;;5.21;54.57
48156;BME280;35568;48.104;11.782;2023-04-15T05:42:14;94298.05;;;5.52;54.45
48156;BME280;35568;48.104;11.782;2023-04-15T05:44:42;94299.98;;;5.09;54.53
48156;BME280;35568;48.104;11.782;2023-04-15T05:47:10;94301.21;;;5.13;54.59
48156;BME280;35568;48.104;11.782;2023-04-15T05:49:36;94303.10;;;4.71;54.75
48156;BME280;35568;48.104;11.782;2023-04-15T05:52:03;94303.06;;;5.48;54.69
48156;BME280;35568;48.104;11.782;2023-04-15T05:54:31;94300.92;;;4.32;54.47
48156;BME280;35568;48.104;11.782;2023-04-15T05:56:58;94302.52;;;5.36;54.03
48156;BME280;35568;48.104;11.782;2023-04-15T05:59:25;94303.54;;;5.67;53.84
48156;BME280;35568;48.104;11.782;2023-04-15T06:01:52;94305.66;;;5.89;52.85
48156;BME280;35568;48.104;11.782;2023-04-15T06:04:18;94310.48;;;6.57;52.84
48156;BME280;35568;48.104;11.782;2023-04-15T06:06:45;94316.40;;;6.64;52.28
48156;BME280;35568;48.104;11.782;2023-04-15T06:09:12;94318.77;;;6.87;51.66
48156;BME280;35568;48.104;11.782;2023-04-15T06:11:39;94319.14;;;6.65;51.42
48156;BME280;35568;48.104;11.782;2023-04-15T06:14:06;94318.27;;;6.59;51.34
48156;BME280;35568;48.104;11.782;2023-04-15T06:16:33;94318.38;;;6.14;51.25
48156;BME280;35568;48.104;11.782;2023-04-15T06:19:00;94317.92;;;6.72;51.72
48156;BME280;35568;48.104;11.782;2023-04-15T06:21:27;94316.18;;;6.74;51.08
48156;BME280;35568;48.104;11.782;2023-04-15T06:23:53;94313.74;;;6.75;51.18
48156;BME280;35568;48.104;11.782;2023-04-15T06:26:20;94315.45;;;6.50;50.63
48156;BME280;35568;48.104;11.782;2023-04-15T06:28:47;94315.04;;;6.55;50.41
48156;BME280;35568;48.104;11.782;2023-04-15T06:31:14;94313.47;;;6.56;50.65
48156;BME280;35568;48.104;11.782;2023-04-15T06:33:41;94311.85;;;6.43;50.58
48156;BME280;35568;48.104;11.782;2023-04-15T06:36:08;94312.36;;;6.70;49.84
48156;BME280;35568;48.104;11.782;2023-04-15T06:38:34;94311.82;;;6.06;50.63
48156;BME280;35568;48.104;11.782;2023-04-15T06:41:02;94311.87;;;6.82;50.40
48156;BME280;35568;48.104;11.782;2023-04-15T06:43:29;94311.22;;;6.75;50.12
48156;BME280;35568;48.104;11.782;2023-04-15T06:45:56;94308.38;;;6.92;50.41
48156;BME280;35568;48.104;11.782;2023-04-15T06:48:23;94309.71;;;6.34;50.04
48156;BME280;35568;48.104;11.782;2023-04-15T06:50:49;94314.44;;;6.80;50.84
48156;BME280;35568;48.104;11.782;2023-04-15T06:53:16;94317.17;;;6.80;49.88
48156;BME280;35568;48.104;11.782;2023-04-15T06:55:44;94316.72;;;6.68;49.52
48156;BME280;35568;48.104;11.782;2023-04-15T06:58:11;94319.42;;;7.22;50.21
48156;BME280;35568;48.104;11.782;2023-04-15T07:00:37;94322.25;;;7.26;49.28
48156;BME280;35568;48.104;11.782;2023-04-15T07:03:04;94320.27;;;7.45;48.47
48156;BME280;35568;48.104;11.782;2023-04-15T07:05:31;94323.12;;;7.56;48.06
48156;BME280;35568;48.104;11.782;2023-04-15T07:07:58;94320.93;;;6.79;49.02
48156;BME280;35568;48.104;11.782;2023-04-15T07:10:25;94321.96;;;6.92;49.41
48156;BME280;35568;48.104;11.782;2023-04-15T07:12:52;94324.17;;;7.28;49.32
48156;BME280;35568;48.104;11.782;2023-04-15T07:15:19;94322.67;;;7.52;48.56
48156;BME280;35568;48.104;11.782;2023-04-15T07:17:45;94324.25;;;7.62;47.78
48156;BME280;35568;48.104;11.782;2023-04-15T07:20:12;94326.13;;;8.13;47.98
48156;BME280;35568;48.104;11.782;2023-04-15T07:22:39;94328.57;;;8.13;46.92
48156;BME280;35568;48.104;11.782;2023-04-15T07:25:07;94330.55;;;8.24;46.92
48156;BME280;35568;48.104;11.782;2023-04-15T07:27:35;94334.32;;;8.29;47.38
48156;BME280;35568;48.104;11.782;2023-04-15T07:30:02;94334.64;;;8.44;47.20
48156;BME280;35568;48.104;11.782;2023-04-15T07:32:28;94334.98;;;8.60;47.08
48156;BME280;35568;48.104;11.782;2023-04-15T07:34:55;94338.24;;;8.51;46.83
48156;BME280;35568;48.104;11.782;2023-04-15T07:37:22;94339.33;;;8.29;45.22
48156;BME280;35568;48.104;11.782;2023-04-15T07:39:49;94337.21;;;8.69;44.88
48156;BME280;35568;48.104;11.782;2023-04-15T07:42:16;94339.15;;;8.46;44.96
48156;BME280;35568;48.104;11.782;2023-04-15T07:44:43;94342.84;;;8.67;44.62
48156;BME280;35568;48.104;11.782;2023-04-15T07:47:09;94343.35;;;8.52;43.21
48156;BME280;35568;48.104;11.782;2023-04-15T07:49:36;94343.47;;;8.33;43.62
48156;BME280;35568;48.104;11.782;2023-04-15T07:52:03;94344.11;;;8.46;43.53
48156;BME280;35568;48.104;11.782;2023-04-15T07:54:30;94342.36;;;8.17;44.27
48156;BME280;35568;48.104;11.782;2023-04-15T07:56:57;94341.44;;;8.08;43.54
48156;BME280;35568;48.104;11.782;2023-04-15T07:59:24;94336.58;;;7.98;43.35
48156;BME280;35568;48.104;11.782;2023-04-15T08:01:51;94336.00;;;8.36;43.61
48156;BME280;35568;48.104;11.782;2023-04-15T08:04:21;94335.22;;;8.39;44.30
48156;BME280;35568;48.104;11.782;2023-04-15T08:06:54;94338.11;;;8.28;44.57
48156;BME280;35568;48.104;11.782;2023-04-15T08:09:21;94337.01;;;8.66;43.70
48156;BME280;35568;48.104;11.782;2023-04-15T08:11:50;94334.45;;;8.85;42.86
48156;BME280;35568;48.104;11.782;2023-04-15T08:14:16;94333.17;;;9.05;42.62
48156;BME280;35568;48.104;11.782;2023-04-15T08:16:43;94333.11;;;9.50;42.02
48156;BME280;35568;48.104;11.782;2023-04-15T08:19:15;94328.60;;;10.11;41.78
48156;BME280;35568;48.104;11.782;2023-04-15T08:21:42;94325.96;;;10.56;40.18
48156;BME280;35568;48.104;11.782;2023-04-15T08:24:09;94327.16;;;10.41;40.50
48156;BME280;35568;48.104;11.782;2023-04-15T08:26:37;94330.81;;;10.97;40.51
48156;BME280;35568;48.104;11.782;2023-04-15T08:29:03;94331.41;;;11.18;40.32
48156;BME280;35568;48.104;11.782;2023-04-15T08:31:30;94332.71;;;11.09;38.17
48156;BME280;35568;48.104;11.782;2023-04-15T08:33:57;94333.90;;;11.47;39.06
48156;BME280;35568;48.104;11.782;2023-04-15T08:36:24;94332.51;;;11.63;38.54
48156;BME280;35568;48.104;11.782;2023-04-15T08:38:51;94334.23;;;11.54;37.80
48156;BME280;35568;48.104;11.782;2023-04-15T08:41:21;94338.96;;;11.02;39.09
48156;BME280;35568;48.104;11.782;2023-04-15T08:43:52;94335.85;;;10.74;38.29
48156;BME280;35568;48.104;11.782;2023-04-15T08:46:20;94334.84;;;10.82;38.41
48156;BME280;35568;48.104;11.782;2023-04-15T08:48:47;94335.22;;;10.50;39.18
48156;BME280;35568;48.104;11.782;2023-04-15T08:51:15;94332.65;;;10.81;38.48
48156;BME280;35568;48.104;11.782;2023-04-15T08:53:44;94340.49;;;10.70;38.46
48156;BME280;35568;48.104;11.782;2023-04-15T08:56:13;94336.75;;;11.12;37.66
48156;BME280;35568;48.104;11.782;2023-04-15T08:58:40;94341.91;;;11.36;38.48
48156;BME280;35568;48.104;11.782;2023-04-15T09:01:07;94340.61;;;11.60;37.60
48156;BME280;35568;48.104;11.782;2023-04-15T09:03:34;94343.06;;;11.77;37.80
48156;BME280;35568;48.104;11.782;2023-04-15T09:06:03;94350.23;;;11.69;38.29
48156;BME280;35568;48.104;11.782;2023-04-15T09:08:30;94350.93;;;12.01;37.86
48156;BME280;35568;48.104;11.782;2023-04-15T09:10:57;94347.10;;;11.91;36.58
48156;BME280;35568;48.104;11.782;2023-04-15T09:13:24;94346.82;;;11.84;36.30
48156;BME280;35568;48.104;11.782;2023-04-15T09:15:51;94347.84;;;11.54;36.02
48156;BME280;35568;48.104;11.782;2023-04-15T09:18:27;94350.42;;;11.65;37.16
48156;BME280;35568;48.104;11.782;2023-04-15T09:20:54;94351.38;;;11.20;36.94
48156;BME280;35568;48.104;11.782;2023-04-15T09:23:22;94352.15;;;11.28;37.95
48156;BME280;35568;48.104;11.782;2023-04-15T09:25:49;94351.45;;;11.27;38.05
48156;BME280;35568;48.104;11.782;2023-04-15T09:28:24;94352.85;;;11.32;38.40
48156;BME280;35568;48.104;11.782;2023-04-15T09:30:54;94358.91;;;10.95;38.08
48156;BME280;35568;48.104;11.782;2023-04-15T09:33:22;94357.86;;;11.10;39.57
48156;BME280;35568;48.104;11.782;2023-04-15T09:35:58;94356.07;;;10.80;38.71
48156;BME280;35568;48.104;11.782;2023-04-15T09:38:26;94362.75;;;10.74;39.76
48156;BME280;35568;48.104;11.782;2023-04-15T09:40:54;94366.15;;;10.49;40.32
48156;BME280;35568;48.104;11.782;2023-04-15T09:43:21;94367.92;;;10.09;41.13
48156;BME280;35568;48.104;11.782;2023-04-15T09:45:50;94372.62;;;9.93;42.05
48156;BME280;35568;48.104;11.782;2023-04-15T09:48:18;94370.79;;;9.90;41.62
48156;BME280;35568;48.104;11.782;2023-04-15T09:50:46;94369.47;;;9.88;42.10
48156;BME280;35568;48.104;11.782;2023-04-15T09:53:16;94369.33;;;10.04;42.44
48156;BME280;35568;48.104;11.782;2023-04-15T09:55:45;94370.21;;;9.92;42.20
48156;BME280;35568;48.104;11.782;2023-04-15T09:58:21;94374.14;;;10.02;42.10
48156;BME280;35568;48.104;11.782;2023-04-15T10:00:50;94374.40;;;10.08;42.05
48156;BME280;35568;48.104;11.782;2023-04-15T10:03:21;94371.77;;;9.81;42.08
48156;BME280;35568;48.104;11.782;2023-04-15T10:05:51;94368.84;;;9.91;42.39
48156;BME280;35568;48.104;11.782;2023-04-15T10:08:20;94366.47;;;10.05;41.56
48156;BME280;35568;48.104;11.782;2023-04-15T10:10:48;94365.53;;;10.59;41.33
48156;BME280;35568;48.104;11.782;2023-04-15T10:13:17;94365.85;;;10.17;42.14
48156;BME280;35568;48.104;11.782;2023-04-15T10:15:48;94366.05;;;10.48;41.19
48156;BME280;35568;48.104;11.782;2023-04-15T10:18:18;94370.05;;;10.06;41.17
48156;BME280;35568;48.104;11.782;2023-04-15T10:20:47;94371.72;;;10.10;40.18
48156;BME280;35568;48.104;11.782;2023-04-15T10:23:14;94370.67;;;10.14;40.29
48156;BME280;35568;48.104;11.782;2023-04-15T10:25:42;94374.72;;;9.88;40.12
48156;BME280;35568;48.104;11.782;2023-04-15T10:28:10;94374.20;;;9.99;39.59
48156;BME280;35568;48.104;11.782;2023-04-15T10:30:38;94380.11;;;9.73;40.37
48156;BME280;35568;48.104;11.782;2023-04-15T10:33:07;94381.20;;;9.94;40.35
48156;BME280;35568;48.104;11.782;2023-04-15T10:35:35;94386.28;;;10.37;39.54
48156;BME280;35568;48.104;11.782;2023-04-15T10:38:30;94388.82;;;9.86;39.30
48156;BME280;35568;48.104;11.782;2023-04-15T10:41:11;94395.82;;;9.72;39.38
48156;BME280;35568;48.104;11.782;2023-04-15T10:43:39;94391.06;;;9.67;39.71
48156;BME280;35568;48.104;11.782;2023-04-15T10:46:11;94394.53;;;9.91;39.77
48156;BME280;35568;48.104;11.782;2023-04-15T10:48:38;94397.64;;;9.74;39.75
48156;BME280;35568;48.104;11.782;2023-04-15T10:51:04;94393.08;;;9.90;39.67
48156;BME280;35568;48.104;11.782;2023-04-15T10:53:31;94397.04;;;9.78;39.34
48156;BME280;35568;48.104;11.782;2023-04-15T10:55:59;94394.01;;;9.99;39.99
48156;BME280;35568;48.104;11.782;2023-04-15T10:58:40;94398.61;;;9.96;39.57
48156;BME280;35568;48.104;11.782;2023-04-15T11:01:07;94398.93;;;10.16;39.51
48156;BME280;35568;48.104;11.782;2023-04-15T11:03:37;94393.29;;;10.17;38.77
48156;BME280;35568;48.104;11.782;2023-04-15T11:06:05;94395.98;;;10.37;39.40
48156;BME280;35568;48.104;11.782;2023-04-15T11:09:05;94393.67;;;10.20;39.30
48156;BME280;35568;48.104;11.782;2023-04-15T11:12:05;94394.42;;;10.34;38.94
48156;BME280;35568;48.104;11.782;2023-04-15T11:14:33;94396.20;;;10.80;38.71
48156;BME280;35568;48.104;11.782;2023-04-15T11:17:00;94399.63;;;10.93;38.91
48156;BME280;35568;48.104;11.782;2023-04-15T11:19:35;94394.37;;;10.66;37.89
48156;BME280;35568;48.104;11.782;2023-04-15T11:22:06;94397.42;;;10.84;39.37
48156;BME280;35568;48.104;11.782;2023-04-15T11:24:33;94397.18;;;10.56;37.61
48156;BME280;35568;48.104;11.782;2023-04-15T11:27:01;94398.77;;;10.93;37.72
48156;BME280;35568;48.104;11.782;2023-04-15T11:29:30;94400.85;;;10.96;38.28
48156;BME280;35568;48.104;11.782;2023-04-15T11:32:05;94401.63;;;11.16;38.05
48156;BME280;35568;48.104;11.782;2023-04-15T11:34:36;94400.24;;;11.45;37.46
48156;BME280;35568;48.104;11.782;2023-04-15T11:37:04;94400.64;;;11.54;37.09
48156;BME280;35568;48.104;11.782;2023-04-15T11:39:31;94400.82;;;11.67;36.96
48156;BME280;35568;48.104;11.782;2023-04-15T11:41:58;94402.37;;;11.52;37.55
48156;BME280;35568;48.104;11.782;2023-04-15T11:44:25;94397.23;;;11.60;36.04
48156;BME280;35568;48.104;11.782;2023-04-15T11:46:54;94400.04;;;11.64;36.45
48156;BME280;35568;48.104;11.782;2023-04-15T11:49:29;94395.33;;;11.11;36.41
48156;BME280;35568;48.104;11.782;2023-04-15T11:51:57;94397.36;;;11.00;37.10
48156;BME280;35568;48.104;11.782;2023-04-15T11:54:23;94398.95;;;10.99;36.60
48156;BME280;35568;48.104;11.782;2023-04-15T11:56:51;94402.42;;;11.02;36.59
48156;BME280;35568;48.104;11.782;2023-04-15T11:59:19;94403.87;;;10.82;36.76
48156;BME280;35568;48.104;11.782;2023-04-15T12:01:45;94403.15;;;10.88;36.78
48156;BME280;35568;48.104;11.782;2023-04-15T12:04:13;94414.14;;;10.63;37.86
48156;BME280;35568;48.104;11.782;2023-04-15T12:06:40;94412.80;;;10.57;37.35
48156;BME280;35568;48.104;11.782;2023-04-15T12:09:09;94416.79;;;10.90;37.18
48156;BME280;35568;48.104;11.782;2023-04-15T12:11:38;94419.93;;;10.52;37.52
48156;BME280;35568;48.104;11.782;2023-04-15T12:14:08;94420.89;;;10.28;37.35
48156;BME280;35568;48.104;11.782;2023-04-15T12:16:38;94419.07;;;10.48;38.14
48156;BME280;35568;48.104;11.782;2023-04-15T12:19:08;94422.69;;;10.41;38.66
48156;BME280;35568;48.104;11.782;2023-04-15T12:21:37;94427.57;;;9.84;37.78
48156;BME280;35568;48.104;11.782;2023-04-15T12:24:06;94428.94;;;10.36;38.02
48156;BME280;35568;48.104;11.782;2023-04-15T12:26:36;94428.10;;;10.32;38.03
48156;BME280;35568;48.104;11.782;2023-04-15T12:29:04;94440.62;;;10.11;37.48
48156;BME280;35568;48.104;11.782;2023-04-15T12:31:32;94441.63;;;10.12;37.39
48156;BME280;35568;48.104;11.782;2023-04-15T12:33:59;94444.79;;;10.07;36.99
48156;BME280;35568;48.104;11.782;2023-04-15T12:36:27;94449.54;;;10.13;38.67
48156;BME280;35568;48.104;11.782;2023-04-15T12:38:54;94446.47;;;9.99;37.46
48156;BME280;35568;48.104;11.782;2023-04-15T12:41:21;94448.88;;;10.15;38.69
48156;BME280;35568;48.104;11.782;2023-04-15T12:43:48;94450.93;;;10.10;37.86
48156;BME280;35568;48.104;11.782;2023-04-15T12:46:17;94454.45;;;9.64;36.09
48156;BME280;35568;48.104;11.782;2023-04-15T12:48:44;94454.89;;;9.57;36.01
48156;BME280;35568;48.104;11.782;2023-04-15T12:51:12;94454.88;;;9.97;35.64
48156;BME280;35568;48.104;11.782;2023-04-15T12:53:40;94456.31;;;10.14;35.25
48156;BME280;35568;48.104;11.782;2023-04-15T12:56:07;94461.65;;;10.08;35.85
48156;BME280;35568;48.104;11.782;2023-04-15T12:58:33;94462.98;;;10.37;34.56
48156;BME280;35568;48.104;11.782;2023-04-15T13:01:00;94460.38;;;10.85;35.74
48156;BME280;35568;48.104;11.782;2023-04-15T13:03:33;94461.17;;;10.65;35.08